Time;durP1;ratioP1;P1;durP2;ratioP2;P2;SDS_P1;SDS_P2;PMS_P1;PMS_P2;Temp;Humidity;BMP_temperature;BMP_pressure;BME280_temperature;BME280_humidity;BME280_pressure;Samples;Min_cycle;Max_cycle;Signal;HPM_P1;HPM_P2
2022/05/19 00:01:16;;;;;;;0.10;0.10;;;;;;;23.45;45.51;101426.38;5118795;28;20135;-31
2022/05/19 00:03:42;;;;;;;0.10;0.10;;;;;;;23.44;45.41;101419.97;5119423;28;20048;-28
2022/05/19 00:06:10;;;;;;;0.10;0.10;;;;;;;23.44;45.50;101419.97;5118454;28;20405;-32
2022/05/19 00:08:36;;;;;;;0.10;0.10;;;;;;;23.44;45.58;101413.56;5117183;28;20077;-32
2022/05/19 00:11:06;;;;;;;0.10;0.10;;;;;;;23.44;45.56;101413.56;5118630;28;20075;-30
2022/05/19 00:13:32;;;;;;;0.10;0.10;;;;;;;23.44;45.62;101411.63;5116889;28;20075;-31
2022/05/19 00:15:58;;;;;;;0.05;0.05;;;;;;;23.43;45.57;101403.59;5126880;28;20074;-31
2022/05/19 00:18:24;;;;;;;0.10;0.10;;;;;;;23.44;45.52;101410.78;5120031;28;20074;-31
2022/05/19 00:20:50;;;;;;;0.10;0.10;;;;;;;23.43;45.58;101398.84;5120156;28;20100;-32
2022/05/19 00:23:15;;;;;;;0.10;0.10;;;;;;;23.43;45.67;101404.41;5121354;28;20557;-30
2022/05/19 00:25:41;;;;;;;0.08;0.08;;;;;;;23.43;45.57;101404.41;5113840;28;20036;-32
2022/05/19 00:28:08;;;;;;;0.10;0.10;;;;;;;23.44;45.56;101399.69;5114955;28;20497;-32
2022/05/19 00:30:34;;;;;;;0.10;0.10;;;;;;;23.44;45.53;101399.69;5117851;28;20090;-31
2022/05/19 00:32:59;;;;;;;0.00;0.00;;;;;;;23.43;45.45;101393.28;5120018;28;20458;-31
2022/05/19 00:35:25;;;;;;;0.10;0.10;;;;;;;23.43;45.60;101396.06;5118547;28;20100;-32
2022/05/19 00:37:51;;;;;;;0.10;0.10;;;;;;;23.43;45.52;101395.25;5118577;28;20036;-32
2022/05/19 00:40:19;;;;;;;0.10;0.10;;;;;;;23.43;45.48;101389.69;5119075;28;20405;-32
2022/05/19 00:42:44;;;;;;;0.00;0.00;;;;;;;23.44;45.61;101391.34;5118314;28;20105;-30
2022/05/19 00:45:16;;;;;;;0.10;0.10;;;;;;;23.43;45.53;101393.28;5120899;28;20465;-30
2022/05/19 00:47:56;;;;;;;0.10;0.10;;;;;;;23.43;45.44;101387.75;5118175;28;20090;-30
2022/05/19 00:50:26;;;;;;;0.10;0.10;;;;;;;23.43;45.57;101384.13;5103392;28;20442;-31
2022/05/19 00:52:57;;;;;;;0.10;0.10;;;;;;;23.42;45.46;101382.50;5118859;28;20079;-31
2022/05/19 00:55:29;;;;;;;0.10;0.10;;;;;;;23.43;45.58;101384.13;5117809;28;20130;-31
2022/05/19 00:57:57;;;;;;;0.10;0.10;;;;;;;23.41;45.50;101376.09;5097780;28;20075;-31
2022/05/19 01:00:23;;;;;;;0.10;0.10;;;;;;;23.41;45.50;101376.09;5118604;28;20085;-31
2022/05/19 01:02:52;;;;;;;0.10;0.10;;;;;;;23.41;45.55;101376.09;5115080;28;20043;-31
2022/05/19 01:05:23;;;;;;;0.10;0.10;;;;;;;23.42;45.51;101374.97;5125689;28;20067;-31
2022/05/19 01:07:56;;;;;;;0.10;0.10;;;;;;;23.42;45.54;101371.38;5117195;28;20134;-32
2022/05/19 01:10:22;;;;;;;0.10;0.10;;;;;;;23.41;45.57;101362.22;5117981;28;20074;-32
2022/05/19 01:12:49;;;;;;;0.00;0.00;;;;;;;23.42;45.49;101369.41;5117642;28;20437;-32
2022/05/19 01:15:15;;;;;;;0.00;0.00;;;;;;;23.42;45.51;101371.38;5125930;28;20466;-32
2022/05/19 01:17:41;;;;;;;0.10;0.10;;;;;;;23.41;45.54;101367.78;5120844;27;20067;-30
2022/05/19 01:20:13;;;;;;;0.00;0.00;;;;;;;23.41;45.60;101372.50;5119661;28;20583;-31
2022/05/19 01:25:43;;;;;;;0.10;0.10;;;;;;;23.40;45.46;101355.00;5179405;27;20218;-29
2022/05/19 01:28:09;;;;;;;0.00;0.00;;;;;;;23.41;45.65;101358.59;5147596;27;20077;-29
2022/05/19 01:30:36;;;;;;;0.10;0.10;;;;;;;23.40;45.70;101357.78;5167753;27;20134;-30
2022/05/19 01:33:02;;;;;;;0.10;0.10;;;;;;;23.41;45.61;101359.44;5165273;27;20042;-30
2022/05/19 01:35:33;;;;;;;0.10;0.10;;;;;;;23.41;45.51;101361.38;5165873;27;20101;-30
2022/05/19 01:38:03;;;;;;;0.10;0.10;;;;;;;23.41;45.47;101364.16;5166465;27;20130;-29
2022/05/19 01:41:08;;;;;;;0.10;0.10;;;;;;;23.40;45.47;101362.50;5161309;27;20057;-29
2022/05/19 01:44:01;;;;;;;0.10;0.10;;;;;;;23.41;45.44;101358.59;5132639;27;20172;-30
2022/05/19 01:46:31;;;;;;;0.00;0.00;;;;;;;23.40;45.50;101356.94;5144092;27;20134;-29
2022/05/19 01:49:10;;;;;;;0.10;0.10;;;;;;;23.41;45.47;101358.59;5126000;27;20137;-29
2022/05/19 01:55:08;;;;;;;0.10;0.10;;;;;;;23.41;45.50;101364.16;5174453;27;20113;-29
2022/05/19 01:57:37;;;;;;;0.10;0.10;;;;;;;23.40;45.50;101365.25;5127340;27;20081;-29
2022/05/19 02:02:45;;;;;;;0.10;0.10;;;;;;;23.40;45.63;101359.72;5163074;27;20261;-29
2022/05/19 02:05:29;;;;;;;0.10;0.10;;;;;;;23.39;45.45;101356.09;5160951;27;20097;-32
2022/05/19 02:07:56;;;;;;;0.10;0.10;;;;;;;23.40;45.58;101356.94;5161793;27;21111;-29
2022/05/19 02:10:26;;;;;;;0.10;0.10;;;;;;;23.39;45.55;101369.19;5164855;27;20801;-30
2022/05/19 02:12:52;;;;;;;0.10;0.10;;;;;;;23.39;45.58;101358.06;5162848;27;20312;-29
2022/05/19 02:15:19;;;;;;;0.10;0.10;;;;;;;23.39;45.52;101367.22;5164695;27;20046;-28
2022/05/19 02:17:46;;;;;;;0.10;0.10;;;;;;;23.39;45.56;101364.44;5164333;27;20138;-30
2022/05/19 02:20:14;;;;;;;0.10;0.10;;;;;;;23.40;45.67;101370.81;5163520;27;20078;-29
2022/05/19 02:22:42;;;;;;;;;;;;;;;23.39;45.66;101363.63;5166129;27;20125;-29
2022/05/19 02:25:14;;;;;;;0.00;0.00;;;;;;;23.38;45.49;101360.03;5162242;27;20003;-29
2022/05/19 02:27:48;;;;;;;0.10;0.10;;;;;;;23.39;45.47;101374.75;5144253;27;20126;-30
2022/05/19 02:30:19;;;;;;;0.10;0.10;;;;;;;23.39;45.70;101369.19;5161667;27;20109;-30
2022/05/19 02:32:45;;;;;;;0.10;0.10;;;;;;;23.39;45.50;101366.41;5142543;27;20853;-30
2022/05/19 02:35:11;;;;;;;0.10;0.10;;;;;;;23.39;45.58;101360.84;5162369;27;20069;-30
2022/05/19 02:37:37;;;;;;;0.10;0.10;;;;;;;23.40;45.56;101362.50;5164620;27;20088;-29
2022/05/19 02:40:03;;;;;;;0.10;0.10;;;;;;;23.38;45.65;101354.47;5165669;27;20409;-30
2022/05/19 02:42:29;;;;;;;0.10;0.10;;;;;;;23.39;45.40;101355.28;5164282;27;20097;-29
2022/05/19 02:44:55;;;;;;;0.10;0.10;;;;;;;23.39;45.58;101358.88;5160494;27;20047;-29
2022/05/19 02:47:20;;;;;;;0.00;0.00;;;;;;;23.39;45.77;101358.06;5162435;27;20046;-30
2022/05/19 02:49:46;;;;;;;0.10;0.10;;;;;;;23.38;45.59;101359.19;5159022;27;20042;-30
2022/05/19 02:52:12;;;;;;;0.10;0.10;;;;;;;23.39;45.59;101360.84;5160865;27;20058;-32
2022/05/19 02:54:37;;;;;;;0.00;0.00;;;;;;;23.39;45.62;101355.28;5164182;27;20054;-31
2022/05/19 02:57:03;;;;;;;0.10;0.10;;;;;;;23.39;45.52;101355.28;5162328;27;20058;-33
2022/05/19 02:59:30;;;;;;;0.10;0.10;;;;;;;23.38;45.49;101343.34;5163631;27;20093;-31
2022/05/19 03:01:56;;;;;;;0.10;0.10;;;;;;;23.38;45.56;101343.34;5162043;27;20130;-35
2022/05/19 03:04:22;;;;;;;0.10;0.10;;;;;;;23.39;45.64;101349.72;5163766;27;20047;-32
2022/05/19 03:06:47;;;;;;;0.10;0.10;;;;;;;23.37;45.65;101343.66;5160814;27;20385;-32
2022/05/19 03:09:13;;;;;;;0.10;0.10;;;;;;;23.38;45.61;101346.13;5161707;27;20099;-31
2022/05/19 03:11:39;;;;;;;0.00;0.00;;;;;;;23.39;45.40;101353.31;5166451;27;20469;-32
2022/05/19 03:14:04;;;;;;;0.10;0.10;;;;;;;23.39;45.55;101349.72;5147408;27;20042;-32
2022/05/19 03:16:30;;;;;;;0.10;0.10;;;;;;;23.38;45.55;101356.41;5144754;27;20055;-32
2022/05/19 03:18:56;;;;;;;0.10;0.10;;;;;;;23.37;45.83;101352.00;5148876;27;20042;-32
2022/05/19 03:21:21;;;;;;;0.05;0.05;;;;;;;23.38;45.60;101356.41;5131291;27;20118;-31
2022/05/19 03:23:51;;;;;;;0.10;0.10;;;;;;;23.38;45.55;101348.06;5147504;27;20111;-33
2022/05/19 03:26:17;;;;;;;0.10;0.10;;;;;;;23.38;45.65;101348.91;5152888;27;20043;-32
2022/05/19 03:28:43;;;;;;;0.10;0.10;;;;;;;23.37;45.67;101335.31;5146271;27;20053;-34
2022/05/19 03:31:09;;;;;;;0.10;0.10;;;;;;;23.37;45.49;101338.91;5147664;27;20042;-31
2022/05/19 03:33:35;;;;;;;0.10;0.10;;;;;;;23.38;45.61;101339.75;5144948;27;20042;-31
2022/05/19 03:36:02;;;;;;;0.10;0.10;;;;;;;23.37;45.47;101344.47;5150415;27;20400;-31
2022/05/19 03:38:28;;;;;;;0.10;0.10;;;;;;;23.37;45.66;101335.31;5144395;27;20063;-31
2022/05/19 03:40:54;;;;;;;0.10;0.10;;;;;;;23.37;45.56;101327.81;5147325;27;20290;-33
2022/05/19 03:43:20;;;;;;;0.10;0.10;;;;;;;23.38;45.53;101325.84;5138685;27;20103;-31
2022/05/19 03:45:46;;;;;;;0.10;0.10;;;;;;;23.37;45.49;101326.97;5142239;27;20385;-32
2022/05/19 03:48:11;;;;;;;0.10;0.10;;;;;;;23.38;45.67;101326.66;5132080;27;20545;-32
2022/05/19 03:50:38;;;;;;;0.10;0.10;;;;;;;23.38;45.57;101325.84;5135796;27;20061;-32
2022/05/19 03:53:03;;;;;;;0.10;0.10;;;;;;;23.36;45.62;101337.28;5141145;27;20486;-31
2022/05/19 03:55:29;;;;;;;0.00;0.00;;;;;;;23.37;45.44;101336.13;5108361;27;21251;-32
2022/05/19 03:57:55;;;;;;;0.10;0.10;;;;;;;23.36;45.46;101342.84;5140021;27;20466;-31
2022/05/19 04:00:21;;;;;;;0.10;0.10;;;;;;;23.38;45.51;101345.28;5141375;27;20051;-31
2022/05/19 04:02:47;;;;;;;0.10;0.10;;;;;;;23.37;45.50;101344.47;5138261;27;20066;-31
2022/05/19 04:05:13;;;;;;;0.00;0.00;;;;;;;23.38;45.61;101339.75;5134890;27;20389;-31
2022/05/19 04:07:40;;;;;;;0.10;0.10;;;;;;;23.37;45.71;101347.25;5138846;27;20093;-32
2022/05/19 04:10:07;;;;;;;0.03;0.03;;;;;;;23.37;45.57;101352.00;5142131;27;20078;-31
2022/05/19 04:12:33;;;;;;;0.10;0.10;;;;;;;23.37;45.63;101357.56;5111998;27;20505;-32
2022/05/19 04:14:59;;;;;;;0.10;0.10;;;;;;;23.37;45.60;101357.56;5131920;27;20078;-31
2022/05/19 04:17:25;;;;;;;0.10;0.10;;;;;;;23.36;45.55;101353.94;5134778;27;20072;-31
2022/05/19 04:19:51;;;;;;;0.10;0.10;;;;;;;23.36;45.63;101353.09;5116510;27;20068;-31
2022/05/19 04:22:17;;;;;;;0.10;0.10;;;;;;;23.36;45.56;101356.72;5135894;27;20091;-31
2022/05/19 04:24:43;;;;;;;0.10;0.10;;;;;;;23.37;45.66;101349.22;5138612;27;20054;-32
2022/05/19 04:27:11;;;;;;;0.10;0.10;;;;;;;23.36;45.34;101353.09;5133172;27;20386;-31
2022/05/19 04:29:37;;;;;;;0.00;0.00;;;;;;;23.36;45.73;101355.88;5135405;27;20074;-32
2022/05/19 04:32:03;;;;;;;0.10;0.10;;;;;;;23.37;45.60;101357.56;5132874;27;20195;-31
2022/05/19 04:34:29;;;;;;;0.10;0.10;;;;;;;23.36;45.56;101353.09;5138213;27;20484;-32
2022/05/19 04:36:54;;;;;;;0.10;0.10;;;;;;;23.36;45.63;101351.16;5134141;27;20035;-33
2022/05/19 04:39:21;;;;;;;0.10;0.10;;;;;;;23.37;45.72;101357.56;5135955;27;20035;-32
2022/05/19 04:41:46;;;;;;;0.10;0.10;;;;;;;23.36;45.56;101356.72;5137466;27;20497;-31
2022/05/19 04:44:12;;;;;;;0.10;0.10;;;;;;;23.36;45.54;101351.16;5134875;27;20103;-31
2022/05/19 04:46:38;;;;;;;0.10;0.10;;;;;;;23.35;45.78;101365.34;5133788;27;20375;-32
2022/05/19 04:49:03;;;;;;;0.00;0.00;;;;;;;23.36;45.65;101362.28;5131370;27;20043;-31
2022/05/19 04:51:29;;;;;;;0.10;0.10;;;;;;;23.36;45.78;101364.22;5130326;27;20047;-31
2022/05/19 04:53:55;;;;;;;0.10;0.10;;;;;;;23.35;45.46;101357.81;5129178;27;20047;-33
2022/05/19 04:56:20;;;;;;;0.10;0.10;;;;;;;23.19;47.57;101362.78;5131715;27;20039;-39
2022/05/19 04:58:46;;;;;;;0.10;0.10;;;;;;;23.27;47.33;101366.81;5130907;27;20055;-32
2022/05/19 05:01:12;;;;;;;0.10;0.10;;;;;;;23.36;46.94;101365.06;5134811;27;20051;-30
2022/05/19 05:03:37;;;;;;;0.10;0.10;;;;;;;23.38;46.78;101371.13;5135378;27;20038;-32
2022/05/19 05:06:03;;;;;;;0.10;0.10;;;;;;;23.39;46.63;101402.53;5135644;27;20039;-31
2022/05/19 05:08:29;;;;;;;0.00;0.00;;;;;;;23.41;46.37;101426.13;5113555;27;20072;-32
2022/05/19 05:11:00;;;;;;;0.10;0.10;;;;;;;23.41;46.45;101416.97;5136499;27;20039;-32
2022/05/19 05:13:26;;;;;;;0.03;0.03;;;;;;;23.42;46.16;101441.69;5135915;27;20042;-32
2022/05/19 05:15:51;;;;;;;0.10;0.10;;;;;;;23.42;46.28;101430.56;5135969;27;20034;-32
2022/05/19 05:18:17;;;;;;;0.10;0.10;;;;;;;23.43;46.00;101451.66;5127206;27;20051;-32
2022/05/19 05:20:43;;;;;;;0.10;0.10;;;;;;;23.44;46.13;101433.03;5124112;27;20043;-33
2022/05/19 05:23:09;;;;;;;0.10;0.10;;;;;;;23.44;45.97;101450.53;5131823;27;20049;-33
2022/05/19 05:25:34;;;;;;;0.00;0.00;;;;;;;23.46;46.18;101476.09;5134976;27;20130;-33
2022/05/19 05:28:01;;;;;;;0.10;0.10;;;;;;;23.46;46.10;101439.97;5123696;27;20402;-32
2022/05/19 05:30:27;;;;;;;0.10;0.10;;;;;;;23.47;45.95;101488.88;5124087;27;20081;-34
2022/05/19 05:32:55;;;;;;;0.10;0.10;;;;;;;23.48;45.90;101459.13;5124279;27;20195;-32
2022/05/19 05:35:21;;;;;;;0.10;0.10;;;;;;;23.49;45.85;101472.75;5125181;27;20142;-33
2022/05/19 05:37:47;;;;;;;0.10;0.10;;;;;;;23.49;46.03;101467.19;5117108;27;20092;-32
2022/05/19 05:40:13;;;;;;;0.10;0.10;;;;;;;23.51;45.94;101503.00;5117660;27;20081;-33
2022/05/19 05:42:39;;;;;;;0.10;0.10;;;;;;;23.52;45.99;101521.34;5117863;27;20092;-30
2022/05/19 05:45:07;;;;;;;0.10;0.10;;;;;;;23.52;46.02;101505.47;5114631;27;20042;-31
2022/05/19 05:47:33;;;;;;;0.10;0.10;;;;;;;23.53;45.92;101489.63;5100691;27;20086;-32
2022/05/19 05:50:06;;;;;;;0.10;0.10;;;;;;;23.54;46.04;101469.06;5116209;27;21283;-29
2022/05/19 05:52:31;;;;;;;0.10;0.10;;;;;;;23.54;45.84;101464.31;5121045;27;20054;-31
2022/05/19 05:54:59;;;;;;;0.10;0.10;;;;;;;23.56;46.03;101454.84;5122657;27;20047;-30
2022/05/19 05:57:26;;;;;;;0.10;0.10;;;;;;;23.56;45.76;101458.47;5117356;27;20130;-31
2022/05/19 05:59:52;;;;;;;0.10;0.10;;;;;;;23.56;45.79;101460.41;5118009;27;21560;-32
2022/05/19 06:02:17;;;;;;;0.10;0.10;;;;;;;23.56;45.70;101441.78;5113291;27;20100;-30
2022/05/19 06:04:43;;;;;;;0.10;0.10;;;;;;;23.48;46.63;101434.91;5117813;27;20043;-31
2022/05/19 06:07:10;;;;;;;0.00;0.00;;;;;;;23.58;46.18;101438.72;5126372;27;20039;-31
2022/05/19 06:09:38;;;;;;;0.00;0.00;;;;;;;23.63;46.00;101449.75;5117092;27;20129;-29
2022/05/19 06:12:04;;;;;;;0.00;0.00;;;;;;;23.63;45.80;101441.44;5115029;27;20714;-33
2022/05/19 06:14:29;;;;;;;0.10;0.10;;;;;;;23.63;45.87;101444.22;5111871;27;20058;-31
2022/05/19 06:16:55;;;;;;;0.10;0.10;;;;;;;23.64;45.86;101448.63;5120739;27;20058;-30
2022/05/19 06:19:21;;;;;;;0.10;0.10;;;;;;;23.65;46.02;101451.13;5112214;27;20043;-30
2022/05/19 06:21:47;;;;;;;0.10;0.10;;;;;;;23.65;45.89;101437.22;5118597;27;20151;-30
2022/05/19 06:24:13;;;;;;;0.10;0.10;;;;;;;23.65;45.78;101434.44;5115780;27;20134;-33
2022/05/19 06:26:39;;;;;;;0.00;0.00;;;;;;;23.67;45.73;101436.94;5119233;27;20134;-30
2022/05/19 06:29:07;;;;;;;0.10;0.10;;;;;;;23.68;45.83;101442.22;5118996;27;20042;-31
2022/05/19 06:31:32;;;;;;;0.10;0.10;;;;;;;23.68;45.81;101442.22;5124947;27;20097;-31
2022/05/19 06:33:59;;;;;;;0.10;0.10;;;;;;;23.68;45.60;101441.38;5116387;27;20047;-30
2022/05/19 06:36:25;;;;;;;0.10;0.10;;;;;;;23.69;45.81;101435.50;5115076;27;20137;-31
2022/05/19 06:38:51;;;;;;;0.10;0.10;;;;;;;23.70;45.87;101439.94;5121479;27;20507;-30
2022/05/19 06:44:02;;;;;;;0.10;0.10;;;;;;;23.75;45.73;101439.06;5097174;27;20103;-31
2022/05/19 06:46:28;;;;;;;0.10;0.10;;;;;;;23.76;45.73;101438.75;5113823;27;20035;-31
2022/05/19 06:48:54;;;;;;;0.10;0.10;;;;;;;23.75;45.78;101434.31;5118952;27;20134;-30
2022/05/19 06:51:19;;;;;;;0.10;0.10;;;;;;;23.76;45.73;101441.53;5119259;27;20039;-31
2022/05/19 06:53:48;;;;;;;0.10;0.10;;;;;;;23.77;45.60;101437.63;5120398;27;20065;-30
2022/05/19 06:56:14;;;;;;;0.10;0.10;;;;;;;23.77;45.47;101426.50;5112177;27;20331;-30
2022/05/19 06:58:39;;;;;;;0.00;0.00;;;;;;;23.78;45.65;101419.81;5111359;27;20043;-31
2022/05/19 07:01:05;;;;;;;0.00;0.00;;;;;;;23.78;45.66;101417.03;5111794;27;20151;-30
2022/05/19 07:03:31;;;;;;;0.05;0.05;;;;;;;23.80;45.72;101419.53;5114552;27;20180;-29
2022/05/19 07:05:56;;;;;;;0.10;0.10;;;;;;;23.81;45.51;101420.34;5119421;27;20039;-30
2022/05/19 07:08:22;;;;;;;0.10;0.10;;;;;;;23.81;45.55;101415.59;5118176;27;20089;-30
2022/05/19 07:10:48;;;;;;;0.10;0.10;;;;;;;23.84;45.37;101422.53;5113670;27;20497;-29
2022/05/19 07:13:14;;;;;;;0.10;0.10;;;;;;;23.84;45.50;101417.78;5115467;27;20135;-31
2022/05/19 07:15:40;;;;;;;0.10;0.10;;;;;;;23.84;45.67;101415.00;5117929;27;20036;-33
2022/05/19 07:18:08;;;;;;;0.10;0.10;;;;;;;23.86;45.52;101409.13;5114870;27;20051;-32
2022/05/19 07:20:50;;;;;;;0.00;0.00;;;;;;;23.87;45.42;101417.16;5120847;27;21456;-32
2022/05/19 07:23:21;;;;;;;0.10;0.10;;;;;;;23.87;45.48;101421.91;5118985;27;20194;-31
2022/05/19 07:25:47;;;;;;;0.10;0.10;;;;;;;23.87;45.52;101408.81;5099824;27;20062;-33
2022/05/19 07:28:13;;;;;;;0.10;0.10;;;;;;;23.89;45.48;101408.53;5118887;27;20474;-32
2022/05/19 07:30:41;;;;;;;0.10;0.10;;;;;;;23.89;45.41;101406.59;5120866;27;20134;-32
2022/05/19 07:33:07;;;;;;;;;;;;;;;23.90;45.63;101401.84;5117342;27;20122;-32
2022/05/19 07:35:34;;;;;;;0.10;0.10;;;;;;;23.90;45.31;101401.84;5118719;27;19935;-32
2022/05/19 07:38:00;;;;;;;0.10;0.10;;;;;;;23.91;45.41;101398.75;5114819;27;20138;-33
2022/05/19 07:40:26;;;;;;;0.10;0.10;;;;;;;23.92;45.31;101397.66;5118649;27;20067;-32
2022/05/19 07:42:52;;;;;;;0.10;0.10;;;;;;;23.93;45.29;101392.91;5117165;27;20066;-32
2022/05/19 07:45:18;;;;;;;0.10;0.10;;;;;;;23.93;45.33;101390.13;5117083;27;20044;-33
2022/05/19 07:47:44;;;;;;;0.00;0.00;;;;;;;23.93;45.38;101392.91;5118962;27;20117;-33
2022/05/19 07:50:11;;;;;;;0.05;0.05;;;;;;;23.94;45.30;101391.78;5101055;27;20124;-33
2022/05/19 07:52:38;;;;;;;0.10;0.10;;;;;;;23.93;45.25;101377.03;5118641;27;20498;-31
2022/05/19 07:55:05;;;;;;;0.00;0.00;;;;;;;23.94;45.27;101380.66;5125166;27;20123;-34
2022/05/19 07:57:30;;;;;;;0.10;0.10;;;;;;;23.93;45.25;101379.81;5122638;27;20183;-33
2022/05/19 07:59:56;;;;;;;0.00;0.00;;;;;;;23.94;45.35;101375.09;5123522;27;20051;-32
2022/05/19 08:02:22;;;;;;;0.10;0.10;;;;;;;23.94;45.31;101372.31;5099094;27;20054;-32
2022/05/19 08:04:48;;;;;;;0.10;0.10;;;;;;;23.93;45.33;101374.25;5123162;27;20047;-35
2022/05/19 08:07:14;;;;;;;0.10;0.10;;;;;;;23.95;45.20;101371.16;5119361;27;20126;-33
2022/05/19 08:15:45;;;;;;;0.00;0.00;;;;;;;23.95;46.57;101368.38;5097512;27;20480;-32
2022/05/19 08:18:01;;;;;;;0.00;0.00;;;;;;;23.97;46.20;101364.19;5091328;27;20130;-33
2022/05/19 08:20:28;;;;;;;0.00;0.00;;;;;;;23.98;46.05;101365.00;5113283;27;20752;-33
2022/05/19 08:22:54;;;;;;;0.10;0.10;;;;;;;23.98;46.05;101363.03;5118490;27;20046;-32
2022/05/19 08:25:24;;;;;;;0.10;0.10;;;;;;;23.98;45.96;101363.03;5117815;27;20503;-33
2022/05/19 08:27:50;;;;;;;0.10;0.10;;;;;;;23.98;45.97;101363.03;5116563;27;20471;-32
2022/05/19 08:30:16;;;;;;;0.10;0.10;;;;;;;23.90;48.61;101349.00;5110689;27;20064;-39
2022/05/19 08:32:42;;;;;;;0.10;0.10;;;;;;;23.95;47.67;101358.06;5104262;27;20112;-32
2022/05/19 08:35:08;;;;;;;0.10;0.10;;;;;;;24.02;47.34;101350.19;5108648;27;20150;-33
2022/05/19 08:37:34;;;;;;;0.10;0.10;;;;;;;24.04;47.01;101355.44;5108002;27;20082;-32
2022/05/19 08:40:00;;;;;;;0.10;0.10;;;;;;;24.05;46.85;101362.66;5107245;27;20047;-35
2022/05/19 08:42:29;;;;;;;0.10;0.10;;;;;;;24.06;46.56;101360.72;5118270;27;20046;-33
2022/05/19 08:44:57;;;;;;;0.10;0.10;;;;;;;24.06;46.51;101350.41;5111753;27;20040;-32
2022/05/19 08:47:26;;;;;;;0.00;0.00;;;;;;;24.08;46.55;101350.09;5112487;27;20135;-35
2022/05/19 08:49:58;;;;;;;0.10;0.10;;;;;;;24.09;46.32;101340.59;5111845;27;20181;-32
2022/05/19 08:52:26;;;;;;;0.10;0.10;;;;;;;24.08;46.33;101336.19;5081382;27;20133;-32
2022/05/19 08:54:53;;;;;;;;;;;;;;;24.08;46.30;101325.03;5093334;27;20071;-34
2022/05/19 08:57:30;;;;;;;0.00;0.00;;;;;;;24.08;46.23;101337.00;5111844;27;19958;-33
2022/05/19 09:00:17;;;;;;;0.10;0.10;;;;;;;24.10;46.12;101328.38;5116252;27;20100;-33
2022/05/19 09:02:47;;;;;;;0.00;0.00;;;;;;;24.08;46.00;101320.31;5111345;27;20508;-32
2022/05/19 09:05:53;;;;;;;0.10;0.10;;;;;;;24.11;46.09;101321.66;5122864;27;20054;-33
2022/05/19 09:11:18;;;;;;;0.10;0.10;;;;;;;24.14;46.04;101301.59;5147891;27;21072;-32
2022/05/19 09:13:56;;;;;;;0.10;0.10;;;;;;;24.16;45.89;101297.34;5131022;27;20190;-33
2022/05/19 09:16:28;;;;;;;0.00;0.00;;;;;;;24.15;45.92;101301.28;5133517;27;20137;-31
2022/05/19 09:19:19;;;;;;;0.10;0.10;;;;;;;24.14;45.88;101294.06;5135281;27;20039;-32
2022/05/19 09:21:48;;;;;;;0.10;0.10;;;;;;;24.14;45.79;101287.66;5116492;27;20141;-31
2022/05/19 09:24:14;;;;;;;0.10;0.10;;;;;;;24.15;45.82;101283.75;5131511;27;20482;-31
2022/05/19 09:26:47;;;;;;;0.10;0.10;;;;;;;24.13;46.15;101283.22;5138330;27;20047;-31
2022/05/19 09:29:17;;;;;;;0.10;0.10;;;;;;;24.20;46.01;101290.03;5133146;27;20462;-35
2022/05/19 09:31:51;;;;;;;0.00;0.00;;;;;;;24.21;45.92;101293.66;5131132;27;20522;-32
2022/05/19 09:34:18;;;;;;;0.08;0.08;;;;;;;24.21;45.78;101294.47;5107270;27;20047;-33
2022/05/19 09:36:54;;;;;;;0.10;0.10;;;;;;;24.21;45.93;101302.00;5125410;27;20367;-34
2022/05/19 09:39:20;;;;;;;0.10;0.10;;;;;;;24.22;45.71;101300.84;5121472;27;20149;-33
2022/05/19 09:41:51;;;;;;;0.00;0.00;;;;;;;24.22;45.91;101293.34;5108291;27;20939;-33
2022/05/19 09:44:23;;;;;;;0.10;0.10;;;;;;;24.23;45.66;101292.22;5111903;27;20055;-32
2022/05/19 09:46:54;;;;;;;0.10;0.10;;;;;;;24.23;45.66;101291.41;5123505;27;20051;-33
2022/05/19 09:49:30;;;;;;;0.00;0.00;;;;;;;24.24;45.74;101290.25;5116820;27;20131;-32
2022/05/19 09:52:01;;;;;;;0.10;0.10;;;;;;;24.23;45.81;101283.03;5115188;27;20051;-33
2022/05/19 09:54:30;;;;;;;0.10;0.10;;;;;;;24.24;45.81;101262.44;5118341;27;20171;-33
2022/05/19 09:57:04;;;;;;;0.10;0.10;;;;;;;24.26;45.73;101268.50;5121955;27;20123;-32
2022/05/19 09:59:37;;;;;;;0.00;0.00;;;;;;;24.26;45.65;101271.28;5119637;27;20521;-35
2022/05/19 10:02:11;;;;;;;0.10;0.10;;;;;;;24.25;45.67;101262.09;5119939;27;20071;-29
2022/05/19 10:04:41;;;;;;;0.10;0.10;;;;;;;24.27;45.61;101264.59;5119507;27;20078;-29
2022/05/19 10:07:17;;;;;;;0.10;0.10;;;;;;;24.27;45.62;101267.38;5115329;27;20040;-30
2022/05/19 10:09:46;;;;;;;0.10;0.10;;;;;;;24.28;45.69;101266.25;5113536;27;20577;-31
2022/05/19 10:12:14;;;;;;;0.10;0.10;;;;;;;24.28;45.63;101264.28;5117408;27;20533;-29
2022/05/19 10:14:41;;;;;;;;;;;;;;;24.29;45.66;101260.38;5101411;27;20115;-30
2022/05/19 10:17:45;;;;;;;0.00;0.00;;;;;;;24.28;45.72;101247.59;5103927;27;20011;-30
2022/05/19 10:20:21;;;;;;;0.10;0.10;;;;;;;24.29;45.52;101245.63;5106140;27;20213;-32
2022/05/19 10:23:46;;;;;;;0.00;0.00;;;;;;;24.31;45.57;101248.09;5105134;28;20127;-31
2022/05/19 10:26:37;;;;;;;0.10;0.10;;;;;;;24.32;45.54;101246.97;5086930;28;20814;-31
2022/05/19 10:32:33;;;;;;;0.00;0.00;;;;;;;24.31;45.77;101229.47;5085372;28;20079;-29
2022/05/19 10:35:31;;;;;;;0.05;0.05;;;;;;;24.32;45.83;101235.84;5102208;28;20406;-30
2022/05/19 10:38:24;;;;;;;0.10;0.10;;;;;;;24.33;45.66;101223.56;5097779;28;20793;-30
2022/05/19 10:41:25;;;;;;;0.10;0.10;;;;;;;24.33;45.67;101216.03;5086066;28;20176;-29
2022/05/19 10:47:15;;;;;;;0.10;0.10;;;;;;;24.32;45.77;101194.91;5155038;27;20220;-32
2022/05/19 10:49:57;;;;;;;0.10;0.10;;;;;;;24.32;45.90;101196.88;5136507;27;20152;-34
2022/05/19 10:52:34;;;;;;;0.00;0.00;;;;;;;24.32;45.82;101194.09;5149267;27;20599;-33
2022/05/19 10:55:19;;;;;;;0.03;0.03;;;;;;;24.31;45.75;101198.00;5154958;27;20130;-31
2022/05/19 10:58:25;;;;;;;0.10;0.10;;;;;;;24.30;45.77;101197.16;5153049;27;20136;-33
2022/05/19 11:01:15;;;;;;;0.10;0.10;;;;;;;24.31;45.69;101196.06;5135134;27;20071;-33
2022/05/19 11:04:08;;;;;;;0.10;0.10;;;;;;;24.31;45.78;101211.91;5139538;27;20159;-31
2022/05/19 11:07:00;;;;;;;0.00;0.00;;;;;;;24.29;45.67;101199.13;5139257;27;20039;-33
2022/05/19 11:09:49;;;;;;;0.10;0.10;;;;;;;24.30;45.65;101191.59;5136800;27;20374;-31
2022/05/19 11:12:25;;;;;;;0.08;0.08;;;;;;;24.31;45.77;101211.91;5140841;27;20106;-31
2022/05/19 11:15:02;;;;;;;0.05;0.05;;;;;;;24.30;45.75;101202.72;5155651;27;20109;-32
2022/05/19 11:18:08;;;;;;;0.10;0.10;;;;;;;24.29;45.70;101204.69;5152693;27;20178;-31
2022/05/19 11:20:57;;;;;;;0.00;0.00;;;;;;;24.28;45.68;101202.22;5136609;27;20074;-31
2022/05/19 11:23:46;;;;;;;0.00;0.00;;;;;;;24.28;45.88;101203.06;5139408;27;20133;-32
2022/05/19 11:26:33;;;;;;;0.10;0.10;;;;;;;24.28;45.91;101199.44;5138585;27;20499;-32
2022/05/19 11:31:53;;;;;;;0.10;0.10;;;;;;;24.27;45.80;101187.50;5151371;27;20197;-30
2022/05/19 11:34:35;;;;;;;0.00;0.00;;;;;;;24.26;45.77;101188.59;5132054;27;20042;-31
2022/05/19 11:37:26;;;;;;;0.00;0.00;;;;;;;24.26;45.73;101196.97;5130994;27;20051;-29
2022/05/19 11:40:02;;;;;;;0.00;0.00;;;;;;;24.25;45.85;101198.09;5118663;27;20101;-29
2022/05/19 11:42:42;;;;;;;0.10;0.10;;;;;;;24.26;45.79;101191.38;5119238;27;20387;-30
2022/05/19 11:45:15;;;;;;;0.10;0.10;;;;;;;24.25;45.77;101202.84;5117099;27;20043;-30
2022/05/19 11:55:12;;;;;;;0.10;0.10;;;;;;;24.23;45.92;101180.06;5099732;27;20522;-29
2022/05/19 11:56:28;;;;;;;0.00;0.00;;;;;;;24.21;46.57;101173.97;5107229;27;20248;-32
2022/05/19 11:58:56;;;;;;;0.10;0.10;;;;;;;24.26;46.25;101168.31;5115281;27;20135;-31
2022/05/19 12:01:29;;;;;;;0.03;0.03;;;;;;;24.28;46.20;101160.50;5122862;27;20126;-31
2022/05/19 12:04:01;;;;;;;0.10;0.10;;;;;;;24.26;46.18;101163.56;5103179;27;20047;-32
2022/05/19 12:06:33;;;;;;;0.00;0.00;;;;;;;24.25;46.09;101152.75;5121423;27;20049;-31
2022/05/19 12:09:05;;;;;;;0.08;0.08;;;;;;;24.25;46.11;101161.09;5116072;27;20124;-32
2022/05/19 12:11:52;;;;;;;0.10;0.10;;;;;;;24.25;46.14;101148.00;5118303;27;20134;-33
2022/05/19 12:19:47;;;;;;;0.10;0.10;;;;;;;24.27;47.03;101142.97;5171647;27;20201;-31
2022/05/19 12:22:32;;;;;;;0.03;0.03;;;;;;;24.31;46.78;101147.88;5147714;27;20126;-32